Time;durP1;ratioP1;P1;durP2;ratioP2;P2;SDS_P1;SDS_P2;PMS_P1;PMS_P2;Temp;Humidity;BMP_temperature;BMP_pressure;BME280_temperature;BME280_humidity;BME280_pressure;Samples;Min_cycle;Max_cycle;Signal;HPM_P1;HPM_P2
2023/01/15 00:01:34;;;;;;;4.70;0.90;;;;;;;9.31;100.00;99188.63;5054358;28;20490;-69
2023/01/15 00:04:02;;;;;;;4.53;0.90;;;;;;;9.31;100.00;99183.22;5054292;28;20533;-69
2023/01/15 00:06:29;;;;;;;4.10;0.60;;;;;;;9.32;100.00;99174.00;5054299;28;20434;-70
2023/01/15 00:08:57;;;;;;;4.13;0.60;;;;;;;9.36;100.00;99187.66;5053932;28;20537;-69
2023/01/15 00:11:24;;;;;;;4.90;0.97;;;;;;;9.39;100.00;99175.41;5054141;28;20458;-69
2023/01/15 00:13:51;;;;;;;4.13;0.57;;;;;;;9.35;100.00;99186.06;5053833;28;20454;-69
2023/01/15 00:16:20;;;;;;;3.90;0.50;;;;;;;9.34;100.00;99184.47;5054177;28;20536;-70
2023/01/15 00:18:51;;;;;;;7.03;0.77;;;;;;;9.33;100.00;99175.56;5053722;28;20450;-70
2023/01/15 00:21:18;;;;;;;4.10;0.50;;;;;;;9.38;100.00;99188.09;5053842;28;20608;-69
2023/01/15 00:29:17;;;;;;;4.60;0.57;;;;;;;9.40;100.00;99174.28;5053653;28;20417;-69
2023/01/15 00:31:52;;;;;;;4.40;0.67;;;;;;;9.45;100.00;99165.97;5053804;28;20494;-69
2023/01/15 00:34:19;;;;;;;4.77;0.80;;;;;;;9.44;100.00;99153.59;5053788;28;20434;-69
2023/01/15 00:36:45;;;;;;;4.67;0.93;;;;;;;9.45;100.00;99150.56;5053750;28;20452;-69
2023/01/15 00:39:12;;;;;;;4.10;0.60;;;;;;;9.48;100.00;99139.09;5053416;28;20542;-69
2023/01/15 00:41:40;;;;;;;4.17;0.60;;;;;;;9.50;100.00;99133.34;5053537;28;20486;-69
2023/01/15 00:44:07;;;;;;;4.50;0.70;;;;;;;9.53;100.00;99133.50;5053295;28;20450;-69
2023/01/15 00:46:33;;;;;;;4.40;0.67;;;;;;;9.50;100.00;99141.47;5053623;28;20478;-69
2023/01/15 00:49:00;;;;;;;4.40;0.67;;;;;;;9.49;100.00;99143.38;5053274;28;20478;-69
2023/01/15 00:51:26;;;;;;;4.40;0.77;;;;;;;9.48;100.00;99146.41;5053402;28;20534;-68
2023/01/15 00:53:53;;;;;;;4.10;0.50;;;;;;;9.50;100.00;99149.56;5053168;28;20442;-69
2023/01/15 00:56:20;;;;;;;3.97;0.50;;;;;;;9.49;100.00;99151.47;5053116;28;20442;-70
2023/01/15 00:58:47;;;;;;;4.00;0.50;;;;;;;9.54;100.00;99147.78;5053059;28;20448;-70
2023/01/15 01:01:15;;;;;;;4.23;0.77;;;;;;;9.54;100.00;99137.78;5052438;28;20857;-71
2023/01/15 01:03:41;;;;;;;4.30;0.53;;;;;;;9.59;100.00;99134.06;5053060;28;20882;-73
2023/01/15 01:06:09;;;;;;;4.43;0.80;;;;;;;9.62;100.00;99141.53;5052971;28;20441;-71
2023/01/15 01:08:35;;;;;;;4.00;0.50;;;;;;;9.64;100.00;99130.38;5053290;28;20445;-71
2023/01/15 01:11:06;;;;;;;4.10;0.70;;;;;;;9.68;100.00;99136.72;5053130;28;20500;-71
2023/01/15 01:13:33;;;;;;;3.90;0.50;;;;;;;9.74;100.00;99136.19;5053059;28;20459;-71
2023/01/15 01:16:01;;;;;;;4.00;0.63;;;;;;;9.74;100.00;99125.38;5053178;28;20469;-70
2023/01/15 01:18:28;;;;;;;4.30;0.60;;;;;;;9.76;100.00;99133.16;5053111;28;20473;-71
2023/01/15 01:20:55;;;;;;;4.97;0.70;;;;;;;9.75;100.00;99129.66;5053094;28;20458;-71
2023/01/15 01:23:23;;;;;;;4.93;0.80;;;;;;;9.78;100.00;99129.00;5052675;28;20569;-71
2023/01/15 01:25:50;;;;;;;3.80;0.50;;;;;;;9.83;100.00;99145.03;5052734;28;20862;-71
2023/01/15 01:28:17;;;;;;;4.23;0.60;;;;;;;9.85;100.00;99148.16;5053080;28;20828;-71
2023/01/15 01:30:43;;;;;;;4.20;0.77;;;;;;;9.88;100.00;99135.13;5052985;28;20462;-71
2023/01/15 01:33:11;;;;;;;3.90;0.50;;;;;;;9.92;100.00;99136.84;5053041;28;20477;-71
2023/01/15 01:35:38;;;;;;;4.10;0.57;;;;;;;9.95;100.00;99130.75;5052961;28;20481;-71
2023/01/15 01:38:04;;;;;;;4.00;0.60;;;;;;;9.97;100.00;99122.31;5052978;28;20453;-71
2023/01/15 01:40:31;;;;;;;5.80;0.87;;;;;;;10.04;100.00;99115.22;5052882;28;20458;-71
2023/01/15 01:42:57;;;;;;;4.03;0.50;;;;;;;10.02;100.00;99103.16;5052875;28;20489;-71
2023/01/15 01:45:27;;;;;;;4.10;0.60;;;;;;;9.99;100.00;99115.44;5052631;28;20446;-70
2023/01/15 01:47:56;;;;;;;3.73;0.40;;;;;;;10.01;100.00;99121.31;5052940;28;20448;-71
2023/01/15 01:50:24;;;;;;;4.50;0.60;;;;;;;10.00;100.00;99117.00;5052787;28;20828;-71
2023/01/15 01:52:56;;;;;;;4.00;0.50;;;;;;;9.96;100.00;99134.22;5052543;28;20439;-71
2023/01/15 01:55:26;;;;;;;3.87;0.50;;;;;;;9.94;100.00;99122.97;5052824;28;20450;-70
2023/01/15 01:57:56;;;;;;;5.17;0.80;;;;;;;9.89;100.00;99123.97;5052506;28;20434;-71
2023/01/15 02:00:24;;;;;;;3.93;0.50;;;;;;;9.88;100.00;99119.69;5052375;28;20447;-71
2023/01/15 02:02:51;;;;;;;4.47;0.77;;;;;;;9.84;100.00;99127.66;5052394;28;20998;-71
2023/01/15 02:05:26;;;;;;;4.00;0.60;;;;;;;9.88;100.00;99116.97;5052514;28;20986;-71
2023/01/15 02:07:54;;;;;;;3.90;0.50;;;;;;;9.85;100.00;99112.22;5054143;28;20432;-70
2023/01/15 02:10:21;;;;;;;4.00;0.40;;;;;;;9.82;100.00;99124.50;5052280;28;20484;-71
2023/01/15 02:12:55;;;;;;;3.90;0.50;;;;;;;9.80;100.00;99113.22;5054604;28;20802;-72
2023/01/15 02:15:27;;;;;;;4.10;0.67;;;;;;;9.81;100.00;99114.81;5056500;28;20458;-71
2023/01/15 02:17:59;;;;;;;4.00;0.60;;;;;;;9.81;100.00;99109.41;5056422;28;20427;-71
2023/01/15 02:20:32;;;;;;;4.40;0.50;;;;;;;9.78;100.00;99120.06;5056370;28;20422;-71
2023/01/15 02:23:31;;;;;;;4.00;0.50;;;;;;;9.73;100.00;99121.06;5056298;28;20466;-71
2023/01/15 02:26:14;;;;;;;3.90;0.50;;;;;;;9.64;100.00;99130.38;5056289;28;20817;-72
2023/01/15 02:28:45;;;;;;;3.90;0.40;;;;;;;9.60;100.00;99124.84;5056242;28;20434;-72
2023/01/15 02:31:16;;;;;;;4.30;0.60;;;;;;;9.54;100.00;99115.34;5056121;28;20462;-72
2023/01/15 02:33:47;;;;;;;4.10;0.70;;;;;;;9.53;100.00;99119.97;5056200;28;20429;-72
2023/01/15 02:36:18;;;;;;;3.73;0.40;;;;;;;9.48;100.00;99122.88;5056056;28;20863;-72
2023/01/15 02:38:48;;;;;;;3.90;0.50;;;;;;;9.47;100.00;99106.97;5055726;28;20521;-72
2023/01/15 02:41:19;;;;;;;4.07;0.50;;;;;;;9.47;100.00;99109.69;5055886;28;20465;-72
2023/01/15 02:43:51;;;;;;;3.80;0.40;;;;;;;9.43;100.00;99100.66;5055619;28;20465;-72
2023/01/15 02:46:23;;;;;;;4.10;0.50;;;;;;;9.41;100.00;99111.78;5055601;28;20971;-72
2023/01/15 02:48:53;;;;;;;3.83;0.47;;;;;;;9.42;100.00;99088.25;5055781;28;20422;-72
2023/01/15 02:51:24;;;;;;;3.87;0.50;;;;;;;9.41;100.00;99095.56;5055815;28;20874;-72
2023/01/15 02:53:54;;;;;;;4.00;0.60;;;;;;;9.42;100.00;99096.38;5055778;28;20427;-73
2023/01/15 02:56:23;;;;;;;4.03;0.60;;;;;;;9.38;100.00;99101.63;5055619;28;20438;-72
2023/01/15 02:58:56;;;;;;;4.10;0.70;;;;;;;9.40;100.00;99104.03;5055675;28;20446;-73
2023/01/15 03:01:28;;;;;;;4.07;0.57;;;;;;;9.42;100.00;99107.19;5055565;28;20486;-72
2023/01/15 03:03:59;;;;;;;4.00;0.60;;;;;;;9.43;100.00;99106.03;5055468;28;20923;-72
2023/01/15 03:06:37;;;;;;;3.80;0.50;;;;;;;9.38;100.00;99107.03;5055244;28;20431;-71
2023/01/15 03:09:04;;;;;;;4.10;0.60;;;;;;;9.34;100.00;99101.53;5055504;28;20431;-72
2023/01/15 03:11:36;;;;;;;4.00;0.53;;;;;;;9.38;100.00;99114.34;5055284;28;20473;-71
2023/01/15 03:14:08;;;;;;;4.30;0.60;;;;;;;9.42;100.00;99113.38;5055117;28;20454;-72
2023/01/15 03:16:36;;;;;;;3.90;0.50;;;;;;;9.46;100.00;99111.59;5055353;28;20513;-71
2023/01/15 03:19:17;;;;;;;4.20;0.60;;;;;;;9.46;100.00;99116.22;5055164;28;20442;-72
2023/01/15 03:21:50;;;;;;;3.90;0.50;;;;;;;9.47;100.00;99104.28;5054858;28;20519;-71
2023/01/15 03:24:21;;;;;;;4.30;0.53;;;;;;;9.44;100.00;99113.84;5054548;28;20561;-72
2023/01/15 03:26:48;;;;;;;3.90;0.50;;;;;;;9.45;100.00;99114.63;5054930;28;20509;-71
2023/01/15 03:29:16;;;;;;;4.00;0.53;;;;;;;9.45;100.00;99111.94;5054935;28;20481;-72
2023/01/15 03:31:43;;;;;;;4.37;0.70;;;;;;;9.41;100.00;99100.97;5054922;28;20465;-72
2023/01/15 03:34:10;;;;;;;4.33;0.70;;;;;;;9.41;100.00;99114.50;5054652;28;20541;-72
2023/01/15 03:36:37;;;;;;;3.90;0.40;;;;;;;9.43;100.00;99111.44;5054955;28;20466;-71
2023/01/15 03:39:04;;;;;;;4.00;0.60;;;;;;;9.45;100.00;99106.53;5054567;28;21003;-71
2023/01/15 03:41:43;;;;;;;3.90;0.50;;;;;;;9.41;100.00;99106.38;5055077;28;20473;-72
2023/01/15 03:44:21;;;;;;;3.90;0.50;;;;;;;9.44;100.00;99116.56;5054739;28;20466;-72
2023/01/15 03:46:59;;;;;;;3.80;0.40;;;;;;;9.50;100.00;99182.00;5054743;28;20505;-70
2023/01/15 03:49:37;;;;;;;3.93;0.50;;;;;;;9.49;100.00;99185.84;5054668;28;20422;-71
2023/01/15 03:52:11;;;;;;;4.00;0.50;;;;;;;9.22;100.00;99179.78;5054606;28;20552;-70
2023/01/15 03:54:48;;;;;;;4.00;0.50;;;;;;;8.94;100.00;99184.88;5054618;28;20458;-70
2023/01/15 03:57:23;;;;;;;4.10;0.50;;;;;;;8.72;100.00;99182.38;5054600;28;20430;-70
2023/01/15 03:59:55;;;;;;;4.00;0.50;;;;;;;8.45;100.00;99189.75;5054518;28;20453;-70
2023/01/15 04:02:24;;;;;;;7.93;0.70;;;;;;;8.29;100.00;99178.66;5054240;28;20822;-70
2023/01/15 04:04:52;;;;;;;4.63;0.70;;;;;;;8.27;100.00;99207.06;5054394;28;20823;-71
2023/01/15 04:07:20;;;;;;;4.23;0.70;;;;;;;8.07;100.00;99222.00;5054354;28;20449;-69
2023/01/15 04:09:47;;;;;;;5.03;0.67;;;;;;;8.02;100.00;99222.97;5054066;28;20966;-71
2023/01/15 04:12:13;;;;;;;4.00;0.40;;;;;;;7.97;100.00;99235.78;5054216;28;20597;-70
2023/01/15 04:14:40;;;;;;;3.90;0.50;;;;;;;7.77;100.00;99248.00;5053944;28;20450;-70
2023/01/15 04:17:08;;;;;;;4.00;0.50;;;;;;;7.43;100.00;99246.81;5054131;28;20446;-70
2023/01/15 04:19:35;;;;;;;4.00;0.40;;;;;;;7.20;100.00;99273.03;5053802;28;20855;-71
2023/01/15 04:22:02;;;;;;;4.00;0.43;;;;;;;7.07;100.00;99272.03;5053722;28;20501;-70
2023/01/15 04:24:28;;;;;;;4.80;0.57;;;;;;;6.96;100.00;99270.72;5053637;28;20931;-69
2023/01/15 04:26:55;;;;;;;4.67;0.50;;;;;;;6.70;100.00;99277.84;5053641;28;20970;-70
2023/01/15 04:29:22;;;;;;;4.00;0.53;;;;;;;6.57;100.00;99271.44;5053624;28;20947;-70
2023/01/15 04:31:51;;;;;;;7.03;0.60;;;;;;;6.48;100.00;99270.59;5053488;28;20983;-71
2023/01/15 04:34:19;;;;;;;3.93;0.40;;;;;;;6.41;100.00;99260.25;5053048;28;20481;-70
2023/01/15 04:36:46;;;;;;;3.90;0.50;;;;;;;6.31;100.00;99265.88;5053769;28;20546;-70
2023/01/15 04:39:13;;;;;;;4.10;0.50;;;;;;;6.16;100.00;99280.47;5053719;28;20496;-70
2023/01/15 04:44:33;;;;;;;3.90;0.40;;;;;;;6.06;100.00;99286.06;5029018;28;20482;-71
2023/01/15 04:46:59;;;;;;;4.27;0.50;;;;;;;6.07;100.00;99287.66;5053328;28;20477;-70
2023/01/15 04:49:27;;;;;;;4.60;0.70;;;;;;;6.00;100.00;99276.53;5053286;28;20936;-71
2023/01/15 04:51:54;;;;;;;4.00;0.40;;;;;;;6.01;100.00;99272.72;5053532;28;20466;-71
2023/01/15 04:54:21;;;;;;;4.77;0.67;;;;;;;6.05;100.00;99273.72;5053529;28;20879;-71
2023/01/15 04:56:50;;;;;;;4.77;0.60;;;;;;;6.04;100.00;99272.13;5053466;28;20450;-70
2023/01/15 04:59:20;;;;;;;7.43;0.40;;;;;;;6.04;100.00;99277.50;5053447;28;20430;-71
2023/01/15 05:01:47;;;;;;;4.07;0.47;;;;;;;6.06;100.00;99278.00;5053661;28;20455;-70
2023/01/15 05:04:14;;;;;;;4.30;0.50;;;;;;;6.00;100.00;99271.16;5053294;28;20521;-71
2023/01/15 05:06:42;;;;;;;4.00;0.50;;;;;;;6.03;100.00;99275.94;5053338;28;20443;-70
2023/01/15 05:09:09;;;;;;;4.33;0.60;;;;;;;6.01;100.00;99276.22;5053272;28;20438;-71
2023/01/15 05:11:36;;;;;;;3.93;0.40;;;;;;;5.98;100.00;99268.78;5052917;28;21022;-70
2023/01/15 05:14:03;;;;;;;4.20;0.40;;;;;;;6.01;100.00;99289.66;5052918;28;20461;-70
2023/01/15 05:16:30;;;;;;;4.00;0.50;;;;;;;5.96;100.00;99288.97;5053143;28;20454;-70
2023/01/15 05:19:01;;;;;;;5.50;0.60;;;;;;;5.93;100.00;99274.28;5052906;28;20982;-71
2023/01/15 05:21:30;;;;;;;4.00;0.50;;;;;;;5.97;100.00;99275.22;5053075;28;20548;-71
2023/01/15 05:24:00;;;;;;;3.97;0.43;;;;;;;5.96;100.00;99276.31;5053066;28;20537;-71
2023/01/15 05:26:28;;;;;;;4.00;0.50;;;;;;;5.96;100.00;99270.16;5053112;28;20810;-71
2023/01/15 05:28:55;;;;;;;4.10;0.50;;;;;;;6.04;100.00;99264.06;5053066;28;20438;-71
2023/01/15 05:31:24;;;;;;;6.10;0.80;;;;;;;6.04;100.00;99264.88;5052932;28;20462;-70
2023/01/15 05:33:51;;;;;;;7.67;1.70;;;;;;;6.02;100.00;99272.44;5052687;28;20936;-71
2023/01/15 05:36:20;;;;;;;5.10;0.90;;;;;;;6.02;100.00;99274.31;5052969;28;20537;-69
2023/01/15 05:38:47;;;;;;;5.67;1.33;;;;;;;6.02;100.00;99274.31;5052679;28;20954;-70
2023/01/15 05:44:04;;;;;;;4.87;0.70;;;;;;;6.06;100.00;99272.63;5052652;28;20461;-70
2023/01/15 05:46:30;;;;;;;4.20;0.70;;;;;;;6.07;100.00;99260.78;5054868;28;20450;-69
2023/01/15 05:49:00;;;;;;;4.00;0.50;;;;;;;6.11;100.00;99261.78;5057014;28;20500;-68
2023/01/15 05:51:27;;;;;;;4.20;0.50;;;;;;;6.12;100.00;99262.56;5056518;28;20466;-70
2023/01/15 05:53:54;;;;;;;4.00;0.50;;;;;;;6.14;100.00;99250.41;5056542;28;20990;-70
2023/01/15 05:56:22;;;;;;;4.33;0.70;;;;;;;6.15;100.00;99246.59;5056801;28;20532;-68
2023/01/15 05:58:49;;;;;;;3.90;0.40;;;;;;;6.19;100.00;99241.41;5056564;28;21010;-69
2023/01/15 06:01:15;;;;;;;4.00;0.50;;;;;;;6.19;100.00;99242.22;5056543;28;20828;-69
2023/01/15 06:03:42;;;;;;;3.90;0.40;;;;;;;6.22;100.00;99246.19;5056617;28;20492;-68
2023/01/15 06:06:13;;;;;;;4.00;0.50;;;;;;;6.19;100.00;99242.22;5056641;28;20442;-68
2023/01/15 06:08:39;;;;;;;5.80;0.77;;;;;;;6.22;100.00;99238.91;5056678;28;20509;-68
2023/01/15 06:11:06;;;;;;;4.00;0.50;;;;;;;6.23;100.00;99216.31;5056169;28;20546;-69
2023/01/15 06:13:35;;;;;;;5.33;0.80;;;;;;;6.24;100.00;99217.09;5056300;28;20516;-68
2023/01/15 06:16:02;;;;;;;4.60;0.90;;;;;;;6.25;100.00;99224.09;5056461;28;20444;-68
2023/01/15 06:18:28;;;;;;;4.37;0.80;;;;;;;6.24;100.00;99236.72;5056527;28;20442;-68
2023/01/15 06:20:55;;;;;;;4.30;0.77;;;;;;;6.22;100.00;99233.53;5056288;28;20462;-69
2023/01/15 06:23:21;;;;;;;6.93;0.90;;;;;;;6.25;100.00;99237.53;5056234;28;20485;-69
2023/01/15 06:25:48;;;;;;;4.07;0.43;;;;;;;6.27;100.00;99240.69;5056010;28;20448;-69
2023/01/15 06:28:14;;;;;;;7.10;0.60;;;;;;;6.27;100.00;99244.16;5056240;28;20446;-69
2023/01/15 06:30:42;;;;;;;5.00;1.00;;;;;;;6.24;100.00;99239.41;5055806;28;20466;-69
2023/01/15 06:33:09;;;;;;;4.17;0.60;;;;;;;6.27;100.00;99251.44;5056117;28;20438;-69
2023/01/15 06:35:35;;;;;;;4.30;0.60;;;;;;;6.26;100.00;99247.16;5056126;28;20438;-69
2023/01/15 06:38:02;;;;;;;4.00;0.50;;;;;;;6.23;100.00;99256.63;5055761;28;20978;-69
2023/01/15 06:40:28;;;;;;;4.00;0.50;;;;;;;6.28;100.00;99261.88;5055661;28;20458;-69
2023/01/15 06:48:28;;;;;;;4.00;0.50;;;;;;;6.26;100.00;99272.16;5055759;28;20811;-70
2023/01/15 06:50:54;;;;;;;4.33;0.67;;;;;;;6.27;100.00;99275.66;5055450;28;20553;-71
2023/01/15 06:53:21;;;;;;;3.90;0.40;;;;;;;6.27;100.00;99284.50;5055749;28;20473;-70
2023/01/15 06:55:48;;;;;;;5.63;0.70;;;;;;;6.27;100.00;99287.19;5055459;28;20474;-71
2023/01/15 06:58:15;;;;;;;4.20;0.50;;;;;;;6.32;100.00;99278.22;5054770;28;20541;-70
2023/01/15 07:00:42;;;;;;;4.00;0.50;;;;;;;6.30;100.00;99267.75;5055526;28;20462;-70
2023/01/15 07:03:12;;;;;;;4.20;0.60;;;;;;;6.27;100.00;99276.44;5055504;28;20485;-70
2023/01/15 07:05:39;;;;;;;6.30;0.80;;;;;;;6.27;100.00;99276.44;5055332;28;20904;-70
2023/01/15 07:08:06;;;;;;;4.40;0.70;;;;;;;6.25;100.00;99292.09;5055145;28;21006;-70
2023/01/15 07:10:34;;;;;;;4.00;0.50;;;;;;;6.23;100.00;99291.59;5055363;28;20470;-71
2023/01/15 07:13:00;;;;;;;4.20;0.50;;;;;;;6.22;100.00;99284.63;5054986;28;20449;-70
2023/01/15 07:15:27;;;;;;;4.30;0.60;;;;;;;6.22;100.00;99275.75;5055101;28;20987;-70
2023/01/15 07:17:54;;;;;;;3.93;0.50;;;;;;;6.22;100.00;99281.94;5055309;28;20438;-71
2023/01/15 07:20:22;;;;;;;4.40;0.63;;;;;;;6.24;100.00;99284.31;5054868;28;20833;-70
2023/01/15 07:22:49;;;;;;;4.00;0.50;;;;;;;6.25;100.00;99284.03;5054933;28;20473;-70
2023/01/15 07:25:16;;;;;;;4.10;0.50;;;;;;;6.23;100.00;99280.03;5055050;28;20517;-70
2023/01/15 07:27:43;;;;;;;4.03;0.53;;;;;;;6.21;100.00;99287.63;5055125;28;20878;-70
2023/01/15 07:30:11;;;;;;;4.33;0.60;;;;;;;6.21;100.00;99301.84;5054981;28;20529;-70
2023/01/15 07:32:37;;;;;;;5.53;0.90;;;;;;;6.20;100.00;99304.84;5054323;28;20462;-70
2023/01/15 07:35:04;;;;;;;4.73;0.80;;;;;;;6.20;100.00;99312.94;5054984;28;20434;-71
2023/01/15 07:37:32;;;;;;;4.27;0.53;;;;;;;6.19;100.00;99304.03;5054954;28;20812;-70
2023/01/15 07:39:59;;;;;;;5.13;0.67;;;;;;;6.21;100.00;99301.84;5054641;28;20525;-70
2023/01/15 07:50:38;;;;;;;4.20;0.50;;;;;;;6.21;100.00;99320.69;5054415;28;20445;-70
2023/01/15 07:53:06;;;;;;;4.00;0.50;;;;;;;6.20;100.00;99315.63;5054702;28;20449;-69
2023/01/15 07:55:34;;;;;;;4.03;0.57;;;;;;;6.23;100.00;99313.09;5054270;28;21003;-70
2023/01/15 07:58:02;;;;;;;4.20;0.50;;;;;;;6.22;100.00;99316.88;5054236;28;20442;-71
2023/01/15 08:00:29;;;;;;;7.03;0.70;;;;;;;6.21;100.00;99314.50;5054085;28;20462;-70
2023/01/15 08:02:55;;;;;;;4.20;0.60;;;;;;;6.23;100.00;99317.69;5054154;28;20935;-71
2023/01/15 08:05:22;;;;;;;4.30;0.63;;;;;;;6.22;100.00;99324.94;5054317;28;20517;-71
2023/01/15 08:10:18;;;;;;;3.90;0.50;;;;;;;6.24;100.00;99308.50;5060952;22;20485;-75
2023/01/15 08:15:33;;;;;;;4.20;0.53;;;;;;;6.23;100.00;99296.97;5054870;28;20470;-77
2023/01/15 08:18:01;;;;;;;4.40;0.60;;;;;;;6.27;100.00;99289.09;5055030;28;20419;-77
2023/01/15 08:20:27;;;;;;;4.47;0.70;;;;;;;6.27;100.00;99281.81;5054894;28;20553;-76
2023/01/15 08:22:54;;;;;;;4.00;0.50;;;;;;;6.31;100.00;99288.19;5055157;28;20514;-77
2023/01/15 08:25:24;;;;;;;3.90;0.50;;;;;;;6.36;100.00;99289.16;5055849;28;20481;-80
2023/01/15 08:27:51;;;;;;;4.53;0.70;;;;;;;6.37;100.00;99290.75;5055818;28;20470;-78
2023/01/15 08:30:20;;;;;;;4.50;0.70;;;;;;;6.37;100.00;99296.13;5054536;28;20546;-78
2023/01/15 08:32:47;;;;;;;3.90;0.40;;;;;;;6.39;100.00;99300.09;5055112;28;20465;-78
2023/01/15 08:35:14;;;;;;;4.40;0.50;;;;;;;6.33;100.00;99295.97;5054297;28;21017;-78
2023/01/15 08:37:41;;;;;;;4.10;0.60;;;;;;;6.37;100.00;99304.19;5055026;28;20525;-77
2023/01/15 08:40:09;;;;;;;3.90;0.50;;;;;;;6.35;100.00;99309.09;5054729;28;20466;-78
2023/01/15 08:42:37;;;;;;;4.00;0.60;;;;;;;6.39;100.00;99318.13;5054550;28;20517;-77
2023/01/15 08:45:04;;;;;;;4.30;0.60;;;;;;;6.42;100.00;99318.34;5054571;28;20509;-77
2023/01/15 08:47:31;;;;;;;4.03;0.50;;;;;;;6.45;100.00;99323.06;5054776;28;20458;-77
2023/01/15 08:49:58;;;;;;;4.10;0.60;;;;;;;6.53;100.00;99316.19;5054429;28;20451;-78
2023/01/15 08:52:25;;;;;;;3.80;0.50;;;;;;;6.56;100.00;99312.91;5054564;28;20472;-78
2023/01/15 08:54:51;;;;;;;4.20;0.60;;;;;;;6.59;100.00;99312.25;5054524;28;20791;-78
2023/01/15 08:57:18;;;;;;;4.60;0.80;;;;;;;6.62;100.00;99308.97;5054273;28;21106;-78
2023/01/15 08:59:47;;;;;;;4.40;0.50;;;;;;;6.62;100.00;99329.69;5054318;28;20524;-78
2023/01/15 09:02:16;;;;;;;7.30;1.00;;;;;;;6.64;100.00;99344.44;5054973;28;20596;-78
2023/01/15 09:04:43;;;;;;;4.20;0.60;;;;;;;6.63;100.00;99344.75;5053954;28;20494;-77
2023/01/15 09:07:11;;;;;;;5.90;1.83;;;;;;;6.70;100.00;99342.44;5054223;28;20563;-78
2023/01/15 09:09:38;;;;;;;4.30;0.73;;;;;;;6.69;99.76;99344.31;5053819;28;21010;-78
2023/01/15 09:12:05;;;;;;;5.10;1.10;;;;;;;6.73;100.00;99339.94;5054086;28;20473;-78
2023/01/15 09:14:31;;;;;;;9.87;1.50;;;;;;;6.73;100.00;99339.94;5054374;28;20443;-78
2023/01/15 09:16:59;;;;;;;4.83;1.00;;;;;;;6.73;100.00;99345.31;5054509;28;20430;-78
2023/01/15 09:19:26;;;;;;;4.80;0.90;;;;;;;6.78;99.66;99341.69;5054224;28;20527;-78
2023/01/15 09:21:53;;;;;;;4.40;0.80;;;;;;;6.69;98.50;99349.72;5054706;28;20533;-78
2023/01/15 09:24:19;;;;;;;5.77;1.00;;;;;;;6.72;98.86;99351.75;5054223;28;20572;-78
2023/01/15 09:26:46;;;;;;;5.90;1.20;;;;;;;6.84;98.99;99353.91;5054150;28;20510;-78
2023/01/15 09:29:13;;;;;;;3.97;0.50;;;;;;;6.79;97.69;99346.75;5053831;28;20997;-77
2023/01/15 09:31:40;;;;;;;4.80;0.87;;;;;;;6.88;98.18;99354.09;5054107;28;20533;-78
2023/01/15 09:34:08;;;;;;;4.70;0.73;;;;;;;6.88;95.79;99351.41;5053524;28;20450;-77
2023/01/15 09:36:35;;;;;;;4.97;0.70;;;;;;;6.92;95.43;99345.09;5053351;28;20529;-77
2023/01/15 09:39:04;;;;;;;13.83;0.87;;;;;;;6.95;95.76;99360.66;5053081;28;21026;-78
2023/01/15 09:42:07;;;;;;;4.40;0.70;;;;;;;6.98;95.97;99356.53;5052878;28;20524;-77
2023/01/15 09:44:45;;;;;;;4.87;0.77;;;;;;;7.02;97.31;99361.00;5053075;28;20486;-77
2023/01/15 09:47:15;;;;;;;3.97;0.50;;;;;;;6.98;94.90;99373.47;5053258;28;20431;-76
2023/01/15 09:50:16;;;;;;;4.47;0.73;;;;;;;7.04;94.45;99355.31;5052855;28;20470;-77
2023/01/15 09:53:13;;;;;;;4.70;0.73;;;;;;;7.02;93.88;99354.81;5053377;28;20883;-77
2023/01/15 09:55:45;;;;;;;4.63;0.83;;;;;;;7.04;92.28;99358.03;5053410;28;21022;-76
2023/01/15 09:58:15;;;;;;;3.83;0.43;;;;;;;7.08;92.06;99353.59;5053344;28;20462;-76
2023/01/15 10:00:50;;;;;;;5.07;0.80;;;;;;;7.16;94.22;99360.91;5052901;28;20901;-76
2023/01/15 10:03:28;;;;;;;4.43;0.70;;;;;;;7.16;95.14;99360.13;5052769;28;20904;-76
2023/01/15 10:06:07;;;;;;;4.20;0.70;;;;;;;7.20;93.59;99350.34;5052665;28;20811;-76
2023/01/15 10:08:36;;;;;;;4.20;0.50;;;;;;;7.23;94.26;99349.72;5052632;28;20453;-76
2023/01/15 10:11:05;;;;;;;4.37;0.77;;;;;;;7.31;91.24;99352.47;5052850;28;20885;-76
2023/01/15 10:13:43;;;;;;;3.97;0.60;;;;;;;7.34;92.92;99359.09;5052844;28;20533;-76
2023/01/15 10:16:11;;;;;;;4.90;0.70;;;;;;;7.37;91.66;99344.25;5053182;28;20454;-77
2023/01/15 10:18:41;;;;;;;3.90;0.50;;;;;;;7.36;90.89;99338.06;5052697;28;21027;-76
2023/01/15 10:21:24;;;;;;;3.80;0.50;;;;;;;7.38;90.26;99345.81;5052998;28;20457;-77
2023/01/15 10:24:01;;;;;;;5.63;1.07;;;;;;;7.44;91.07;99350.00;5052599;28;20434;-77
2023/01/15 10:26:33;;;;;;;5.13;1.33;;;;;;;7.49;90.96;99331.78;5052808;28;20497;-76
2023/01/15 10:29:02;;;;;;;4.63;0.77;;;;;;;7.50;88.55;99349.53;5052796;28;20506;-76
2023/01/15 10:31:49;;;;;;;5.00;1.40;;;;;;;7.57;88.64;99341.00;5052604;28;20466;-76
2023/01/15 10:34:48;;;;;;;4.00;0.60;;;;;;;7.61;87.46;99343.84;5055587;28;20509;-76
2023/01/15 10:37:22;;;;;;;3.90;0.50;;;;;;;7.53;88.14;99348.13;5051784;28;20997;-76
2023/01/15 10:40:13;;;;;;;3.90;0.60;;;;;;;7.55;87.15;99353.97;5056505;28;20618;-76
2023/01/15 10:42:50;;;;;;;3.87;0.50;;;;;;;7.63;87.10;99342.44;5056200;28;20430;-75
2023/01/15 10:45:21;;;;;;;3.80;0.50;;;;;;;7.64;87.38;99354.03;5056190;28;20476;-76
2023/01/15 10:47:53;;;;;;;3.80;0.50;;;;;;;7.58;88.13;99337.19;5055802;28;20855;-76
2023/01/15 10:50:23;;;;;;;5.33;0.53;;;;;;;7.68;83.32;99346.91;5056074;28;20546;-76
2023/01/15 10:53:02;;;;;;;3.77;0.40;;;;;;;7.71;83.70;99341.69;5056107;28;20442;-76
2023/01/15 10:55:33;;;;;;;3.93;0.67;;;;;;;7.76;83.91;99340.75;5056001;28;20529;-76
2023/01/15 10:58:07;;;;;;;3.93;0.63;;;;;;;7.84;85.29;99345.38;5055923;28;20430;-76
2023/01/15 11:00:33;;;;;;;3.80;0.40;;;;;;;7.80;82.41;99347.91;5055971;28;20493;-75
2023/01/15 11:03:03;;;;;;;11.97;3.57;;;;;;;7.83;84.17;99360.75;5055530;28;20529;-76
2023/01/15 11:05:32;;;;;;;10.20;2.83;;;;;;;7.87;83.48;99355.50;5055340;28;21008;-76
2023/01/15 11:08:05;;;;;;;8.23;0.77;;;;;;;7.82;82.34;99356.44;5055414;28;20537;-76
2023/01/15 11:10:32;;;;;;;4.30;0.80;;;;;;;7.81;82.33;99373.75;5055606;28;20497;-76
2023/01/15 11:21:23;;;;;;;5.10;0.60;;;;;;;7.83;82.79;99352.66;5055383;28;20437;-76
2023/01/15 11:23:51;;;;;;;3.80;0.43;;;;;;;7.75;81.38;99356.13;5061513;28;20446;-76
2023/01/15 11:26:22;;;;;;;6.03;0.77;;;;;;;7.78;82.37;99354.69;5060267;28;20486;-76
2023/01/15 11:28:50;;;;;;;3.80;0.40;;;;;;;7.77;82.17;99351.22;5063757;28;20521;-76
2023/01/15 11:31:17;;;;;;;3.90;0.60;;;;;;;7.81;82.85;99354.88;5061522;28;20458;-76
2023/01/15 11:33:57;;;;;;;3.70;0.40;;;;;;;7.86;82.16;99361.22;5058010;28;20538;-75
2023/01/15 11:36:28;;;;;;;3.77;0.47;;;;;;;7.82;81.39;99361.84;5056701;28;20514;-76
2023/01/15 11:38:56;;;;;;;4.00;0.50;;;;;;;7.81;81.62;99348.69;5059749;28;20434;-76
2023/01/15 11:50:42;;;;;;;3.80;0.40;;;;;;;7.78;81.48;99350.09;5055897;28;20458;-76
2023/01/15 11:52:38;;;;;;;6.63;0.77;;;;;;;7.81;81.38;99349.47;5054771;28;20406;-76
2023/01/15 11:55:12;;;;;;;4.20;0.50;;;;;;;7.82;83.65;99345.66;5054885;28;20795;-76
2023/01/15 11:57:40;;;;;;;4.33;0.80;;;;;;;7.89;82.22;99350.63;5054371;28;20509;-76
2023/01/15 12:00:15;;;;;;;7.63;0.83;;;;;;;7.87;81.72;99343.94;5053690;28;20468;-76
2023/01/15 12:02:44;;;;;;;4.10;0.63;;;;;;;7.80;81.36;99350.59;5054930;28;20512;-76
2023/01/15 12:05:16;;;;;;;4.10;0.60;;;;;;;7.77;83.30;99348.50;5054347;28;20514;-75
2023/01/15 12:07:44;;;;;;;4.00;0.60;;;;;;;7.82;83.71;99345.66;5054719;28;20529;-75
2023/01/15 12:10:20;;;;;;;4.00;0.50;;;;;;;7.76;81.32;99341.53;5054083;28;20470;-76
2023/01/15 12:13:00;;;;;;;3.80;0.50;;;;;;;7.84;81.99;99342.69;5054321;28;20438;-75
2023/01/15 12:15:39;;;;;;;4.20;0.60;;;;;;;7.81;82.40;99346.00;5054390;28;20530;-75
2023/01/15 12:18:41;;;;;;;3.90;0.60;;;;;;;7.83;82.55;99352.66;5054073;28;20437;-75
2023/01/15 12:21:22;;;;;;;4.67;0.80;;;;;;;7.86;83.71;99342.34;5047598;28;20509;-75
2023/01/15 12:24:12;;;;;;;3.80;0.50;;;;;;;7.91;81.93;99350.28;5054270;28;20522;-75
2023/01/15 12:26:56;;;;;;;9.10;2.20;;;;;;;8.09;81.91;99343.81;5054073;28;20576;-76
2023/01/15 12:29:27;;;;;;;6.70;1.80;;;;;;;8.20;79.72;99344.34;5054292;28;20433;-75
2023/01/15 12:32:00;;;;;;;4.00;0.80;;;;;;;8.18;79.95;99341.13;5054198;28;20514;-75
2023/01/15 12:34:36;;;;;;;4.47;0.93;;;;;;;8.17;78.69;99331.47;5053807;28;20589;-76